Time;durP1;ratioP1;P1;durP2;ratioP2;P2;SDS_P1;SDS_P2;PMS_P1;PMS_P2;Temp;Humidity;BMP_temperature;BMP_pressure;BME280_temperature;BME280_humidity;BME280_pressure;Samples;Min_cycle;Max_cycle;Signal;HPM_P1;HPM_P2
2023/07/29 00:01:21;;;;;;;1.80;1.65;;;;;;;-145.68;100.00;72684.38;10215023;29;20673;-69
2023/07/29 00:06:21;;;;;;;3.72;1.67;;;;;;;-145.68;100.00;72684.38;10215198;29;20208;-69
2023/07/29 00:11:22;;;;;;;1.83;1.73;;;;;;;-145.68;100.00;72696.34;10214520;29;20232;-69
2023/07/29 00:16:22;;;;;;;2.08;1.67;;;;;;;-145.68;100.00;72700.34;10214378;29;20300;-69
2023/07/29 00:21:23;;;;;;;3.28;1.58;;;;;;;-145.68;100.00;72676.38;10214307;29;20282;-68
2023/07/29 00:26:25;;;;;;;1.70;1.60;;;;;;;-145.68;100.00;72680.38;10214279;29;20239;-69
2023/07/29 00:31:26;;;;;;;2.65;1.80;;;;;;;-145.68;100.00;72678.38;10213941;29;20235;-68
2023/07/29 00:36:26;;;;;;;1.70;1.60;;;;;;;-145.68;100.00;72682.38;10213734;29;20830;-68
2023/07/29 00:41:27;;;;;;;1.92;1.77;;;;;;;-145.68;100.00;72692.38;10213582;29;20287;-68
2023/07/29 00:46:28;;;;;;;1.73;1.63;;;;;;;-145.68;100.00;72702.34;10196242;29;20227;-68
2023/07/29 00:51:28;;;;;;;1.77;1.67;;;;;;;-145.68;100.00;72714.34;10196149;29;20267;-69
2023/07/29 00:56:30;;;;;;;2.15;1.60;;;;;;;-145.68;100.00;72720.34;10195984;29;20208;-68
2023/07/29 01:01:32;;;;;;;4.63;1.90;;;;;;;-145.68;100.00;72730.34;10212603;29;20605;-69
2023/07/29 01:06:55;;;;;;;3.15;1.90;;;;;;;-145.68;100.00;72740.31;10212717;29;20244;-69
2023/07/29 01:12:02;;;;;;;2.03;1.85;;;;;;;-145.68;100.00;72748.31;10179484;29;20251;-69
2023/07/29 01:17:08;;;;;;;1.60;1.50;;;;;;;-145.68;100.00;72754.31;10195408;29;20196;-69
2023/07/29 01:22:10;;;;;;;3.03;1.85;;;;;;;-145.68;100.00;72742.31;10178927;29;20250;-68
2023/07/29 01:27:10;;;;;;;2.97;1.70;;;;;;;-145.68;100.00;72768.31;10211409;29;20548;-69
2023/07/29 01:32:17;;;;;;;1.77;1.58;;;;;;;-145.68;100.00;72748.31;10194495;29;20240;-69
2023/07/29 01:37:21;;;;;;;3.20;2.08;;;;;;;-145.68;100.00;72754.31;10211640;29;20290;-70
2023/07/29 01:42:21;;;;;;;1.80;1.70;;;;;;;-145.68;100.00;72746.31;10194575;29;20240;-69
2023/07/29 01:47:22;;;;;;;1.70;1.60;;;;;;;-145.68;100.00;72746.31;10211101;29;20208;-68
2023/07/29 01:52:23;;;;;;;2.17;1.73;;;;;;;-145.68;100.00;72746.31;10211298;29;20714;-69
2023/07/29 01:57:23;;;;;;;2.67;1.48;;;;;;;-145.68;100.00;72756.31;10193865;29;20221;-68
2023/07/29 02:02:23;;;;;;;1.67;1.58;;;;;;;-145.68;100.00;72752.31;10193832;29;20231;-69
2023/07/29 02:07:26;;;;;;;1.58;1.48;;;;;;;-145.68;100.00;72754.31;10210897;29;20211;-69
2023/07/29 02:12:26;;;;;;;1.60;1.50;;;;;;;-145.68;100.00;72760.31;10193639;29;20378;-69
2023/07/29 02:17:27;;;;;;;2.33;1.43;;;;;;;-145.68;100.00;72750.31;10211170;29;20290;-69
2023/07/29 02:22:27;;;;;;;1.58;1.42;;;;;;;-145.68;100.00;72758.31;10193211;29;21133;-68
2023/07/29 02:27:28;;;;;;;1.98;1.45;;;;;;;-145.68;100.00;72754.31;10193462;29;20208;-69
2023/07/29 02:32:28;;;;;;;1.70;1.40;;;;;;;-145.68;100.00;72772.31;10210174;29;20219;-68
2023/07/29 02:37:28;;;;;;;1.50;1.40;;;;;;;-145.68;100.00;72772.31;10196102;29;20207;-69
2023/07/29 02:42:29;;;;;;;1.55;1.45;;;;;;;-145.68;100.00;72760.31;10201210;29;20723;-69
2023/07/29 02:47:29;;;;;;;2.90;1.48;;;;;;;-145.68;100.00;72772.31;10200524;29;20212;-69
2023/07/29 02:52:29;;;;;;;1.80;1.20;;;;;;;-145.68;100.00;72770.31;10200648;29;20662;-69
2023/07/29 02:57:30;;;;;;;1.77;1.60;;;;;;;-145.68;100.00;72766.31;10200380;29;20208;-69
2023/07/29 03:02:30;;;;;;;2.92;1.30;;;;;;;-145.68;100.00;72800.28;10200243;29;20223;-70
2023/07/29 03:07:31;;;;;;;1.60;1.27;;;;;;;-145.68;100.00;72798.28;10200070;29;20211;-70
2023/07/29 03:12:31;;;;;;;1.73;1.40;;;;;;;-145.68;100.00;72800.28;10216741;29;20242;-70
2023/07/29 03:17:32;;;;;;;3.65;1.40;;;;;;;-145.68;100.00;72764.31;10199915;29;20683;-70
2023/07/29 03:22:32;;;;;;;1.40;1.30;;;;;;;-145.68;100.00;72776.28;10216561;29;20778;-70
2023/07/29 03:27:33;;;;;;;1.65;1.30;;;;;;;-145.68;100.00;72758.31;10199358;29;20750;-70
2023/07/29 03:32:33;;;;;;;1.17;1.10;;;;;;;-145.68;100.00;72746.31;10199194;29;20620;-70
2023/07/29 03:37:34;;;;;;;1.55;1.20;;;;;;;-145.68;100.00;72742.31;10199071;29;20207;-69
2023/07/29 03:42:35;;;;;;;3.22;1.10;;;;;;;-145.68;100.00;72756.31;10198912;29;20702;-70
2023/07/29 03:47:35;;;;;;;2.95;1.15;;;;;;;-145.68;100.00;72736.31;10197976;29;20238;-69
2023/07/29 03:52:36;;;;;;;1.00;0.98;;;;;;;-145.68;100.00;72722.34;10198652;29;21111;-70
2023/07/29 03:57:36;;;;;;;1.63;1.20;;;;;;;-145.68;100.00;72722.34;10215278;29;20207;-70
2023/07/29 04:02:37;;;;;;;1.60;1.30;;;;;;;-145.68;100.00;72704.34;10215232;29;20224;-70
2023/07/29 04:07:37;;;;;;;1.02;1.02;;;;;;;-145.68;100.00;72704.34;10197844;29;20219;-69
2023/07/29 04:12:38;;;;;;;1.73;1.13;;;;;;;-145.68;100.00;72704.34;10197809;29;20242;-69
2023/07/29 04:17:38;;;;;;;1.15;1.08;;;;;;;-145.68;100.00;72692.38;10181902;29;20578;-70
2023/07/29 04:22:39;;;;;;;1.00;0.90;;;;;;;-145.68;100.00;72688.38;10197376;29;20250;-69
2023/07/29 04:27:39;;;;;;;1.13;0.95;;;;;;;-145.68;100.00;72680.38;10197139;29;20219;-69
2023/07/29 04:32:41;;;;;;;1.10;1.00;;;;;;;-145.68;100.00;72660.38;10213932;29;20239;-69
2023/07/29 04:37:42;;;;;;;0.88;0.88;;;;;;;-145.68;100.00;72644.41;10196907;29;20212;-69
2023/07/29 04:42:42;;;;;;;0.80;0.80;;;;;;;-145.68;100.00;72630.41;10196391;29;20232;-69
2023/07/29 04:47:43;;;;;;;2.78;1.00;;;;;;;-145.68;100.00;72622.41;10196497;29;20218;-69
2023/07/29 04:52:43;;;;;;;1.70;1.13;;;;;;;-145.68;100.00;72618.44;10241182;23;20789;-66
2023/07/29 04:57:44;;;;;;;3.78;1.00;;;;;;;-145.68;100.00;72592.44;10235523;29;20563;-66
2023/07/29 05:02:44;;;;;;;0.90;0.90;;;;;;;-145.68;100.00;72596.44;10225430;28;20247;-65
2023/07/29 05:07:44;;;;;;;1.75;1.10;;;;;;;-145.68;100.00;72570.47;10212585;29;20308;-66
2023/07/29 05:12:45;;;;;;;1.20;1.08;;;;;;;-145.68;99.98;72552.47;10212597;29;20308;-66
2023/07/29 05:17:45;;;;;;;3.35;0.90;;;;;;;-145.68;98.48;72544.50;10212136;29;20237;-65
2023/07/29 05:22:45;;;;;;;1.17;1.00;;;;;;;-145.68;97.88;72540.50;10212378;29;20220;-66
2023/07/29 05:27:46;;;;;;;1.17;1.05;;;;;;;-145.68;97.38;72524.50;10194803;29;20207;-67
2023/07/29 05:32:46;;;;;;;1.02;0.88;;;;;;;-145.68;94.41;72504.53;10194812;29;20318;-66
2023/07/29 05:37:47;;;;;;;0.95;0.95;;;;;;;-145.68;91.96;72488.53;10194746;29;20822;-66
2023/07/29 05:42:47;;;;;;;2.10;1.00;;;;;;;-145.68;90.33;72466.56;10211405;29;20904;-67
2023/07/29 05:47:49;;;;;;;1.15;1.05;;;;;;;-145.68;87.36;72446.56;10211661;29;20286;-66
2023/07/29 05:52:49;;;;;;;1.05;0.95;;;;;;;-145.68;84.11;72410.59;10193864;29;20741;-66
2023/07/29 05:57:49;;;;;;;1.08;0.98;;;;;;;-145.68;80.46;72410.59;10211299;29;20247;-66
2023/07/29 06:02:50;;;;;;;1.70;1.05;;;;;;;-145.68;80.29;72362.66;10210996;29;20231;-67
2023/07/29 06:07:54;;;;;;;1.02;0.90;;;;;;;-145.68;78.24;72342.66;10193735;29;20208;-66
2023/07/29 06:12:54;;;;;;;1.63;0.98;;;;;;;-145.68;75.35;72290.72;10210440;29;20265;-67
2023/07/29 06:17:55;;;;;;;1.23;0.90;;;;;;;-145.68;69.16;72230.75;10193279;29;20678;-65
2023/07/29 06:22:55;;;;;;;1.65;1.23;;;;;;;-145.68;66.55;72222.78;10193682;29;20731;-66
2023/07/29 06:27:57;;;;;;;1.00;1.00;;;;;;;-145.68;67.99;72234.75;10193353;29;20581;-67
2023/07/29 06:32:58;;;;;;;1.00;0.93;;;;;;;-145.68;67.09;72260.72;10210245;29;20773;-67
2023/07/29 06:37:58;;;;;;;1.63;1.30;;;;;;;-145.68;66.95;72242.75;10210239;29;20215;-67
2023/07/29 06:42:59;;;;;;;1.17;1.10;;;;;;;-145.68;66.07;72286.72;10209977;29;20258;-66
2023/07/29 06:47:59;;;;;;;2.70;0.90;;;;;;;-145.68;68.26;72314.69;10210211;29;20299;-66
2023/07/29 06:52:59;;;;;;;1.83;1.20;;;;;;;-145.68;67.27;72302.69;10209840;29;20239;-66
2023/07/29 06:58:00;;;;;;;2.67;1.15;;;;;;;-145.68;67.84;72302.69;10209817;29;20271;-67
2023/07/29 07:03:00;;;;;;;2.75;1.10;;;;;;;-145.68;67.82;72280.72;10192822;29;20267;-68
2023/07/29 07:08:00;;;;;;;1.17;1.08;;;;;;;-145.68;65.82;72254.75;10209742;29;20215;-67
2023/07/29 07:13:01;;;;;;;1.00;1.00;;;;;;;-145.68;60.68;72058.94;10209537;29;20282;-67
2023/07/29 07:18:01;;;;;;;0.70;0.70;;;;;;;-145.68;56.56;72024.97;10209593;29;20204;-66
2023/07/29 07:23:02;;;;;;;3.70;0.85;;;;;;;-145.68;57.68;72118.88;10210146;29;20267;-66
2023/07/29 07:28:03;;;;;;;0.98;0.90;;;;;;;-145.68;57.25;72108.88;10216514;29;20212;-67
2023/07/29 07:33:03;;;;;;;0.70;0.70;;;;;;;-145.68;54.44;71993.00;10216098;29;20713;-67
2023/07/29 07:38:04;;;;;;;4.75;0.77;;;;;;;-145.68;55.51;72040.94;10216302;29;20215;-67
2023/07/29 07:43:04;;;;;;;1.38;0.70;;;;;;;-145.68;55.77;72090.91;10213263;29;20234;-67
2023/07/29 07:48:04;;;;;;;2.47;0.70;;;;;;;-145.68;57.05;72170.81;10212902;29;20215;-65
2023/07/29 07:53:05;;;;;;;1.05;0.77;;;;;;;-145.68;57.00;72186.81;10215502;29;20242;-66
2023/07/29 07:58:05;;;;;;;0.55;0.52;;;;;;;-145.68;56.68;72096.88;10213002;29;20212;-67
2023/07/29 08:03:06;;;;;;;0.90;0.68;;;;;;;-145.68;56.96;72092.91;10215248;29;20224;-67
2023/07/29 08:08:06;;;;;;;0.70;0.70;;;;;;;-145.68;56.63;72060.94;10212814;29;20212;-68
2023/07/29 08:13:06;;;;;;;0.63;0.63;;;;;;;-145.68;55.34;71957.03;10214438;29;20300;-68
2023/07/29 08:18:07;;;;;;;1.23;1.02;;;;;;;-145.68;53.61;71901.09;10213920;29;20216;-67
2023/07/29 08:23:07;;;;;;;0.90;0.90;;;;;;;-145.68;53.13;71915.06;10215120;29;20236;-67
2023/07/29 08:28:07;;;;;;;2.35;1.35;;;;;;;-145.68;55.13;72012.97;10209754;29;20310;-66
2023/07/29 08:33:08;;;;;;;0.80;0.80;;;;;;;-145.68;55.05;72008.97;10212992;29;20236;-66
2023/07/29 08:38:08;;;;;;;1.02;0.88;;;;;;;-145.68;52.76;71825.16;10211327;29;20307;-66
2023/07/29 08:43:09;;;;;;;3.00;1.02;;;;;;;-145.68;53.44;71925.06;10212463;29;20235;-66
2023/07/29 08:48:10;;;;;;;4.75;1.17;;;;;;;-145.68;54.15;71989.00;10213440;29;20208;-66
2023/07/29 08:53:10;;;;;;;1.67;1.05;;;;;;;-145.68;53.73;71967.00;10213154;29;20583;-66
2023/07/29 08:58:11;;;;;;;1.30;1.20;;;;;;;-145.68;53.06;71933.03;10196155;29;20208;-67
2023/07/29 09:03:11;;;;;;;4.22;1.20;;;;;;;-145.68;53.49;71971.00;10212953;29;20230;-66
2023/07/29 09:08:12;;;;;;;1.15;1.10;;;;;;;-145.68;52.81;71977.00;10212652;29;20662;-67
2023/07/29 09:13:12;;;;;;;1.52;1.10;;;;;;;-145.68;51.68;71881.09;10212544;29;20616;-67
2023/07/29 09:18:17;;;;;;;1.52;1.23;;;;;;;-145.68;51.27;71867.13;10212333;29;20216;-66
2023/07/29 09:23:17;;;;;;;1.30;1.10;;;;;;;-145.68;52.31;71955.03;10195098;29;20240;-67
2023/07/29 09:28:19;;;;;;;0.95;0.95;;;;;;;-145.68;52.02;71901.09;10212141;29;20632;-67
2023/07/29 09:33:19;;;;;;;1.48;1.00;;;;;;;-145.68;51.06;71907.06;10211791;29;20243;-66
2023/07/29 09:38:26;;;;;;;0.80;0.80;;;;;;;-145.68;51.74;71931.06;10211621;29;20644;-66
2023/07/29 09:43:31;;;;;;;1.17;1.10;;;;;;;-145.68;51.37;71889.09;10211522;29;20785;-67
2023/07/29 09:48:35;;;;;;;2.10;1.00;;;;;;;-145.68;51.61;71907.06;10210834;29;20717;-66
2023/07/29 09:53:42;;;;;;;1.25;1.10;;;;;;;-145.68;52.06;71857.13;10210929;29;20268;-66
2023/07/29 09:58:45;;;;;;;1.00;1.00;;;;;;;-145.68;51.76;71757.22;10211279;29;20243;-67
2023/07/29 10:03:46;;;;;;;2.45;1.10;;;;;;;-145.68;50.87;71665.31;10210704;29;20326;-66
2023/07/29 10:08:47;;;;;;;0.93;0.93;;;;;;;-145.68;51.71;71827.16;10210848;29;20212;-67
2023/07/29 10:13:48;;;;;;;1.35;0.80;;;;;;;-145.68;49.80;71649.34;10210620;29;20243;-67
2023/07/29 10:18:49;;;;;;;3.80;1.10;;;;;;;-145.68;48.83;71577.41;10210597;29;20686;-67
2023/07/29 10:23:53;;;;;;;1.10;0.90;;;;;;;-145.68;49.33;71665.31;10211141;29;20575;-67
2023/07/29 10:28:54;;;;;;;2.35;0.90;;;;;;;-145.68;47.62;71593.41;10210466;29;20359;-67
2023/07/29 10:33:54;;;;;;;1.83;1.00;;;;;;;-145.68;53.53;71967.00;10193371;29;20770;-67
2023/07/29 10:38:55;;;;;;;2.38;0.93;;;;;;;-145.68;60.94;72146.84;10210164;29;20212;-66
2023/07/29 10:43:55;;;;;;;5.80;1.08;;;;;;;-145.68;74.30;72406.59;10210013;29;20294;-67
2023/07/29 10:48:57;;;;;;;7.63;1.15;;;;;;;-145.68;96.93;72478.53;10210285;29;20588;-68
2023/07/29 10:53:59;;;;;;;1.10;0.95;;;;;;;-145.68;100.00;72486.53;10255637;23;20617;-67
2023/07/29 10:59:12;;;;;;;1.70;0.80;;;;;;;-145.68;98.62;72442.56;10252675;28;20573;-68
2023/07/29 11:04:30;;;;;;;0.98;0.98;;;;;;;-145.68;95.31;72376.63;10221884;29;20260;-70
2023/07/29 11:09:41;;;;;;;2.00;1.08;;;;;;;-145.68;98.46;72370.63;10217101;29;20234;-69
2023/07/29 11:14:41;;;;;;;1.95;1.40;;;;;;;-145.68;100.00;72344.66;10216836;29;20263;-70
2023/07/29 11:19:42;;;;;;;1.63;1.17;;;;;;;-145.68;100.00;72314.69;10213778;29;20223;-69
2023/07/29 11:24:42;;;;;;;3.53;1.60;;;;;;;-145.68;98.80;72270.72;10216532;29;20232;-70
2023/07/29 11:29:43;;;;;;;2.75;1.15;;;;;;;-145.68;91.54;72218.78;10215692;29;20224;-69
2023/07/29 11:34:44;;;;;;;1.98;1.23;;;;;;;-145.68;87.97;72162.81;10216201;29;20235;-68
2023/07/29 11:39:45;;;;;;;1.52;1.20;;;;;;;-145.68;84.58;72100.88;10214541;29;20220;-67
2023/07/29 11:44:45;;;;;;;3.35;1.45;;;;;;;-145.68;80.50;72088.91;10213978;29;20262;-67
2023/07/29 11:49:45;;;;;;;2.63;1.58;;;;;;;-145.68;79.61;72072.91;10214782;29;20211;-67
2023/07/29 11:54:47;;;;;;;1.42;1.33;;;;;;;-145.68;72.63;72068.91;10214728;29;20326;-68
2023/07/29 11:59:48;;;;;;;2.30;0.90;;;;;;;-145.68;66.67;72116.88;10214338;29;20234;-69
2023/07/29 12:04:48;;;;;;;1.02;0.80;;;;;;;-145.68;63.36;72084.91;10215116;29;20242;-68
2023/07/29 12:09:49;;;;;;;1.30;1.08;;;;;;;-145.68;61.30;72024.97;10212800;29;20207;-68
2023/07/29 12:14:49;;;;;;;1.15;0.80;;;;;;;-145.68;59.52;72002.97;10214520;29;20243;-69
2023/07/29 12:19:54;;;;;;;0.88;0.73;;;;;;;-145.68;59.47;72054.94;10213685;29;20640;-69
2023/07/29 12:24:54;;;;;;;2.10;0.60;;;;;;;-145.68;60.83;72022.97;10214578;29;20280;-69
2023/07/29 12:29:55;;;;;;;1.10;0.70;;;;;;;-145.68;60.74;72020.97;10195613;29;20566;-69
2023/07/29 12:34:55;;;;;;;1.80;0.80;;;;;;;-145.68;62.43;72000.97;10214057;29;20235;-70
2023/07/29 12:39:56;;;;;;;0.70;0.70;;;;;;;-145.68;62.70;71995.00;10212116;29;20207;-70
2023/07/29 12:44:56;;;;;;;0.70;0.70;;;;;;;-145.68;61.26;71867.13;10213741;29;20211;-71
2023/07/29 12:49:56;;;;;;;0.57;0.57;;;;;;;-145.68;55.44;71845.13;10212263;29;20215;-70
2023/07/29 12:54:57;;;;;;;1.58;0.80;;;;;;;-145.68;56.48;71777.22;10213321;29;20228;-70
2023/07/29 12:59:57;;;;;;;1.95;0.93;;;;;;;-145.68;55.88;71835.16;10221134;29;20272;-70
2023/07/29 13:04:57;;;;;;;0.88;0.60;;;;;;;-145.68;54.74;71785.19;10211589;29;20228;-69
2023/07/29 13:09:58;;;;;;;0.75;0.75;;;;;;;-145.68;55.16;71775.22;10212226;29;20210;-67
2023/07/29 13:14:58;;;;;;;0.80;0.80;;;;;;;-145.68;54.61;71857.13;10212648;29;20255;-68
2023/07/29 13:19:58;;;;;;;0.85;0.85;;;;;;;-145.68;55.68;71865.13;10212171;29;20286;-69
2023/07/29 13:24:59;;;;;;;2.60;1.20;;;;;;;-145.68;54.25;71781.19;10192747;29;20222;-69
2023/07/29 13:29:59;;;;;;;2.45;0.90;;;;;;;-145.68;54.97;71829.16;10212067;29;20299;-68
2023/07/29 13:34:59;;;;;;;1.38;1.27;;;;;;;-145.68;53.89;71937.03;10209036;29;20290;-68
2023/07/29 13:40:00;;;;;;;0.93;0.75;;;;;;;-145.68;52.37;71761.22;10211762;29;20216;-73
2023/07/29 13:45:00;;;;;;;2.72;1.08;;;;;;;-145.68;50.67;71763.22;10210578;29;20267;-71
2023/07/29 13:50:02;;;;;;;0.98;0.90;;;;;;;-145.68;48.34;71749.22;10211574;29;20258;-71
2023/07/29 13:55:03;;;;;;;0.95;0.80;;;;;;;-145.68;48.55;71681.31;10209289;29;20228;-70
2023/07/29 14:00:05;;;;;;;2.85;0.82;;;;;;;-145.68;46.84;71607.38;10210942;29;20224;-69
2023/07/29 14:05:12;;;;;;;2.67;0.68;;;;;;;-145.68;47.27;71665.31;10210473;29;20665;-69
2023/07/29 14:10:12;;;;;;;1.67;0.63;;;;;;;-145.68;46.52;71549.44;10210780;29;20235;-70
2023/07/29 14:15:13;;;;;;;1.13;0.90;;;;;;;-145.68;42.83;71291.75;10211681;29;20231;-70
2023/07/29 14:20:13;;;;;;;0.80;0.80;;;;;;;-145.68;43.65;71511.50;10208003;29;20283;-69
2023/07/29 14:25:14;;;;;;;2.88;1.00;;;;;;;-145.68;42.59;71393.63;10210624;29;20763;-70
2023/07/29 14:30:14;;;;;;;1.00;1.00;;;;;;;-145.68;45.55;71619.38;10207912;29;20243;-68
2023/07/29 14:35:16;;;;;;;2.25;0.93;;;;;;;-145.68;47.90;71631.34;10216201;29;20239;-68
2023/07/29 14:40:16;;;;;;;0.98;0.98;;;;;;;-145.68;45.51;71469.53;10217580;29;20239;-69
2023/07/29 14:45:16;;;;;;;0.85;0.85;;;;;;;-145.68;41.94;71137.91;10218162;29;20215;-70
2023/07/29 14:50:17;;;;;;;2.00;0.95;;;;;;;-145.68;40.85;71369.66;10215985;29;20236;-69
2023/07/29 14:55:17;;;;;;;0.93;0.88;;;;;;;-145.68;46.42;71695.28;10217731;29;20238;-68
2023/07/29 15:00:18;;;;;;;2.65;0.90;;;;;;;-145.68;44.11;71569.44;10215254;29;20231;-69
2023/07/29 15:05:18;;;;;;;2.45;0.80;;;;;;;-145.68;43.89;71491.50;10214789;29;20220;-70
2023/07/29 15:10:18;;;;;;;1.33;0.90;;;;;;;-145.68;43.22;71477.53;10214046;29;20243;-69
2023/07/29 15:15:19;;;;;;;0.82;0.82;;;;;;;-145.68;42.90;71475.53;10217178;29;20232;-69
2023/07/29 15:20:19;;;;;;;0.85;0.85;;;;;;;-145.68;43.11;71465.53;10214557;29;20318;-68
2023/07/29 15:25:20;;;;;;;0.70;0.70;;;;;;;-145.68;43.20;71457.56;10216861;29;20216;-68
2023/07/29 15:30:20;;;;;;;3.23;0.87;;;;;;;-145.68;42.07;71341.69;10216332;29;20635;-68
2023/07/29 15:35:24;;;;;;;1.17;0.80;;;;;;;-145.68;41.14;71433.56;10214881;29;20918;-69
2023/07/29 15:40:24;;;;;;;1.02;0.90;;;;;;;-145.68;39.57;71279.75;10214149;29;20259;-69
2023/07/29 15:45:25;;;;;;;1.23;0.70;;;;;;;-145.68;40.15;71379.63;10214707;29;20212;-68
2023/07/29 15:50:25;;;;;;;0.93;0.90;;;;;;;-145.68;42.73;71609.38;10212793;29;20471;-68
2023/07/29 15:55:25;;;;;;;1.27;1.17;;;;;;;-145.68;44.56;71625.38;10213863;29;20239;-68
2023/07/29 16:00:28;;;;;;;0.82;0.80;;;;;;;-145.68;46.74;71813.16;10215297;29;20232;-68
2023/07/29 16:05:28;;;;;;;1.40;1.00;;;;;;;-145.68;47.54;71861.13;10211638;29;20232;-68
2023/07/29 16:10:29;;;;;;;1.20;1.10;;;;;;;-145.68;48.30;71853.13;10214865;29;20602;-68
2023/07/29 16:15:29;;;;;;;1.33;1.15;;;;;;;-145.68;48.65;71897.09;10211988;29;20280;-68
2023/07/29 16:20:29;;;;;;;1.38;1.27;;;;;;;-145.68;49.13;71877.09;10214670;29;20242;-68
2023/07/29 16:25:30;;;;;;;1.30;1.10;;;;;;;-145.68;49.65;71907.06;10214476;29;20220;-68
2023/07/29 16:30:30;;;;;;;1.13;1.02;;;;;;;-145.68;49.77;71909.06;10211596;29;20259;-68
2023/07/29 16:35:31;;;;;;;1.20;1.10;;;;;;;-145.68;49.50;71901.09;10213303;29;20239;-69
2023/07/29 16:40:31;;;;;;;1.80;1.55;;;;;;;-145.68;49.89;71889.09;10210662;29;20568;-68
2023/07/29 16:45:32;;;;;;;1.23;1.13;;;;;;;-145.68;49.35;71863.13;10220830;29;20219;-68
2023/07/29 16:50:34;;;;;;;2.70;1.25;;;;;;;-145.68;49.33;71861.13;10211339;29;20785;-68
2023/07/29 16:55:34;;;;;;;2.28;1.20;;;;;;;-145.68;48.07;71993.00;10212100;29;20240;-68
2023/07/29 17:00:35;;;;;;;3.90;1.50;;;;;;;-145.68;49.20;72096.88;10213305;29;20728;-68
2023/07/29 17:05:35;;;;;;;3.15;1.30;;;;;;;-145.68;50.46;72172.81;10212054;29;20640;-68
2023/07/29 17:10:35;;;;;;;3.47;1.13;;;;;;;-145.68;51.30;72204.78;10212941;29;20243;-69
2023/07/29 17:15:36;;;;;;;1.30;1.20;;;;;;;-145.68;53.20;72256.75;10210892;29;20679;-69
2023/07/29 17:20:36;;;;;;;1.88;1.40;;;;;;;-145.68;56.58;72308.69;10212502;29;20705;-69
2023/07/29 17:25:36;;;;;;;1.50;1.40;;;;;;;-145.68;60.23;72418.59;10212283;29;20741;-69
2023/07/29 17:30:37;;;;;;;1.67;1.58;;;;;;;-145.68;64.10;72462.56;10210463;29;20236;-68
2023/07/29 17:35:37;;;;;;;4.82;1.80;;;;;;;-145.68;77.60;72660.38;10211978;29;20244;-66
2023/07/29 17:40:38;;;;;;;3.85;1.60;;;;;;;-145.68;98.99;72692.38;10210575;29;20247;-67
2023/07/29 17:45:38;;;;;;;3.17;1.67;;;;;;;-145.68;100.00;72732.34;10211679;29;20278;-67
2023/07/29 17:50:41;;;;;;;3.33;2.10;;;;;;;-145.68;100.00;72756.31;10211176;29;20223;-66
2023/07/29 17:55:41;;;;;;;3.33;1.80;;;;;;;-145.68;100.00;72744.31;10209557;29;20390;-67
2023/07/29 18:00:41;;;;;;;3.63;1.88;;;;;;;-145.68;100.00;72780.28;10211060;29;20363;-66
2023/07/29 18:05:42;;;;;;;3.38;1.98;;;;;;;-145.68;100.00;72762.31;10209171;29;20212;-67
2023/07/29 18:10:43;;;;;;;3.85;2.40;;;;;;;-145.68;100.00;72776.28;10207926;29;20315;-66
2023/07/29 18:15:43;;;;;;;4.72;1.98;;;;;;;-145.68;100.00;72776.28;10207944;29;20239;-67
2023/07/29 18:20:44;;;;;;;2.00;1.60;;;;;;;-145.68;100.00;72782.28;10209293;29;20247;-67
2023/07/29 18:25:44;;;;;;;3.00;1.85;;;;;;;-145.68;100.00;72816.25;10205946;29;20230;-67
2023/07/29 18:30:47;;;;;;;3.25;1.42;;;;;;;-145.68;100.00;72800.28;10210436;29;20231;-67
2023/07/29 18:35:48;;;;;;;2.28;1.58;;;;;;;-145.68;100.00;72812.28;10209204;29;20242;-67
2023/07/29 18:40:48;;;;;;;2.13;1.27;;;;;;;-145.68;100.00;72832.25;10210661;29;20234;-67
2023/07/29 18:45:49;;;;;;;4.88;1.77;;;;;;;-145.68;100.00;72850.25;10209073;29;20235;-67
2023/07/29 18:50:49;;;;;;;3.42;1.15;;;;;;;-145.68;100.00;72864.22;10209984;29;20232;-67
2023/07/29 18:55:51;;;;;;;4.38;1.23;;;;;;;-145.68;100.00;72872.22;10210039;29;20318;-66
2023/07/29 19:00:53;;;;;;;3.35;1.30;;;;;;;-145.68;100.00;72886.22;10209821;29;20737;-66
2023/07/29 19:05:57;;;;;;;4.43;1.35;;;;;;;-145.68;100.00;72908.19;10206613;29;20593;-67
2023/07/29 19:10:57;;;;;;;3.47;1.20;;;;;;;-145.68;100.00;72900.19;10209816;29;20232;-67
2023/07/29 19:15:57;;;;;;;2.38;1.20;;;;;;;-145.68;100.00;72902.19;10208519;29;20239;-67
2023/07/29 19:20:58;;;;;;;1.55;1.13;;;;;;;-145.68;100.00;72902.19;10213126;29;20235;-66
2023/07/29 19:25:58;;;;;;;3.17;1.50;;;;;;;-145.68;100.00;72900.19;10215222;29;20637;-66
2023/07/29 19:30:58;;;;;;;1.50;0.93;;;;;;;-145.68;100.00;72904.19;10216487;29;20656;-66
2023/07/29 19:35:59;;;;;;;1.67;1.25;;;;;;;-145.68;100.00;72892.22;10214420;29;20688;-66
2023/07/29 19:41:00;;;;;;;2.30;1.50;;;;;;;-145.68;100.00;72904.19;10216306;29;20239;-65
2023/07/29 19:46:03;;;;;;;5.40;1.33;;;;;;;-145.68;100.00;72904.19;10214933;29;20222;-65
2023/07/29 19:51:03;;;;;;;3.53;1.20;;;;;;;-145.68;98.98;72880.22;10215624;29;20278;-66
2023/07/29 19:56:04;;;;;;;1.10;1.00;;;;;;;-145.68;97.49;72886.22;10214573;29;20272;-66
2023/07/29 20:01:04;;;;;;;4.55;1.45;;;;;;;-145.68;96.86;72892.22;10215374;29;20578;-66
2023/07/29 20:06:05;;;;;;;2.78;1.58;;;;;;;-145.68;95.85;72898.19;10213439;29;20231;-66
2023/07/29 20:11:05;;;;;;;2.58;1.20;;;;;;;-145.68;95.59;72912.19;10214802;29;20235;-66
2023/07/29 20:16:06;;;;;;;1.40;1.20;;;;;;;-145.68;95.66;72906.19;10213618;29;20246;-66
2023/07/29 20:21:06;;;;;;;2.15;1.65;;;;;;;-145.68;97.57;72920.19;10214695;29;20224;-65
2023/07/29 20:26:06;;;;;;;4.43;1.20;;;;;;;-145.68;98.96;72926.19;10212691;29;20232;-66
2023/07/29 20:31:07;;;;;;;1.45;1.30;;;;;;;-145.68;98.71;72920.19;10196863;29;20238;-66
2023/07/29 20:36:07;;;;;;;1.38;1.10;;;;;;;-145.68;99.66;72928.19;10211208;29;20231;-66
2023/07/29 20:41:08;;;;;;;5.10;3.10;;;;;;;-145.68;99.94;72934.19;10212053;29;20240;-66
2023/07/29 20:46:17;;;;;;;3.53;2.05;;;;;;;-145.68;100.00;72938.16;10213631;29;20212;-66
2023/07/29 20:51:18;;;;;;;2.88;1.55;;;;;;;-145.68;100.00;72968.16;10212580;29;20753;-66
2023/07/29 20:56:18;;;;;;;1.85;1.58;;;;;;;-145.68;100.00;72952.16;10207027;29;20235;-66
2023/07/29 21:01:18;;;;;;;1.77;1.58;;;;;;;-145.68;100.00;72962.16;10211841;29;20258;-66
2023/07/29 21:06:19;;;;;;;2.47;1.52;;;;;;;-145.68;100.00;72966.16;10210700;29;20227;-66
2023/07/29 21:11:19;;;;;;;2.42;1.45;;;;;;;-145.68;100.00;72954.16;10211490;29;20821;-66
2023/07/29 21:16:20;;;;;;;2.83;1.63;;;;;;;-145.68;100.00;72948.16;10212581;29;20614;-66
2023/07/29 21:21:20;;;;;;;1.73;1.60;;;;;;;-145.68;100.00;72938.16;10212468;29;20609;-67
2023/07/29 21:26:20;;;;;;;2.15;1.60;;;;;;;-145.68;100.00;72938.16;10211547;29;20220;-66
2023/07/29 21:31:21;;;;;;;3.10;1.98;;;;;;;-145.68;100.00;72952.16;10210315;29;20319;-66
2023/07/29 21:36:22;;;;;;;2.80;1.90;;;;;;;-145.68;100.00;72944.16;10210697;29;20219;-66
2023/07/29 21:41:23;;;;;;;2.65;1.50;;;;;;;-145.68;100.00;72944.16;10210956;29;20243;-66
2023/07/29 21:46:23;;;;;;;3.67;2.20;;;;;;;-145.68;100.00;72952.16;10210929;29;20267;-66
2023/07/29 21:51:25;;;;;;;2.90;2.00;;;;;;;-145.68;100.00;72976.16;10209339;29;20232;-66
2023/07/29 21:56:26;;;;;;;2.33;2.13;;;;;;;-145.68;100.00;73006.13;10208974;29;20220;-66
2023/07/29 22:01:26;;;;;;;1.50;1.40;;;;;;;-145.68;100.00;73028.09;10210183;29;20600;-67
2023/07/29 22:06:27;;;;;;;2.55;1.83;;;;;;;-145.68;100.00;73042.09;10210387;29;20216;-66
2023/07/29 22:11:28;;;;;;;5.97;1.52;;;;;;;-145.68;100.00;73058.09;10210735;29;20227;-66
2023/07/29 22:16:28;;;;;;;2.08;1.85;;;;;;;-145.68;100.00;73076.06;10210893;29;20588;-66
2023/07/29 22:21:29;;;;;;;3.47;1.90;;;;;;;-145.68;100.00;73100.06;10210209;29;20239;-66
2023/07/29 22:26:30;;;;;;;2.53;1.65;;;;;;;-145.68;100.00;73110.06;10210478;29;20231;-67
2023/07/29 22:31:31;;;;;;;6.75;1.90;;;;;;;-145.68;100.00;73116.03;10210621;29;20322;-66
2023/07/29 22:36:31;;;;;;;2.30;1.90;;;;;;;-145.68;100.00;73128.03;10209611;29;20687;-66
2023/07/29 22:41:31;;;;;;;1.70;1.60;;;;;;;-145.68;100.00;73134.03;10209821;29;20235;-66